Time;durP1;ratioP1;P1;durP2;ratioP2;P2;SDS_P1;SDS_P2;PMS_P1;PMS_P2;Temp;Humidity;BMP_temperature;BMP_pressure;BME280_temperature;BME280_humidity;BME280_pressure;Samples;Min_cycle;Max_cycle;Signal;HPM_P1;HPM_P2
2022/10/22 00:02:00;;;;;;;8.60;3.35;;;18.40;47.30;;;;;;5089790;28;20214;-46
2022/10/22 00:04:30;;;;;;;8.77;3.72;;;18.50;47.30;;;;;;5090749;28;20710;-47
2022/10/22 00:07:03;;;;;;;7.25;2.63;;;18.50;47.20;;;;;;5090550;28;20287;-42
2022/10/22 00:09:34;;;;;;;7.50;2.75;;;18.50;47.20;;;;;;5090700;28;20197;-40
2022/10/22 00:12:05;;;;;;;6.18;2.72;;;18.50;47.60;;;;;;5090402;28;20572;-41
2022/10/22 00:14:35;;;;;;;6.18;3.10;;;18.60;47.10;;;;;;5088232;28;20767;-40
2022/10/22 00:17:06;;;;;;;6.55;2.63;;;18.60;47.10;;;;;;5090592;28;20689;-40
2022/10/22 00:19:37;;;;;;;5.93;2.40;;;18.60;47.10;;;;;;5090457;28;20676;-39
2022/10/22 00:22:10;;;;;;;6.28;2.55;;;18.60;46.90;;;;;;5090435;28;20218;-37
2022/10/22 00:24:41;;;;;;;7.45;2.80;;;18.70;46.90;;;;;;5078780;28;20214;-37
2022/10/22 00:27:13;;;;;;;6.13;2.97;;;18.70;46.90;;;;;;5089668;28;20727;-43
2022/10/22 00:29:44;;;;;;;7.05;3.03;;;18.80;46.80;;;;;;5090111;28;20204;-44
2022/10/22 00:32:15;;;;;;;7.20;2.83;;;18.80;46.70;;;;;;5090189;28;20190;-48
2022/10/22 00:34:46;;;;;;;6.25;2.35;;;18.80;46.70;;;;;;5090465;28;20194;-47
2022/10/22 00:37:19;;;;;;;6.97;3.08;;;18.80;46.60;;;;;;5090115;28;20221;-39
2022/10/22 00:39:49;;;;;;;5.10;2.53;;;18.80;46.40;;;;;;5089507;28;20194;-43
2022/10/22 00:42:23;;;;;;;8.23;2.95;;;18.80;46.30;;;;;;5090073;28;20681;-37
2022/10/22 00:45:19;;;;;;;6.65;2.97;;;18.90;46.30;;;;;;5089382;28;20198;-38
2022/10/22 00:47:53;;;;;;;5.75;2.67;;;18.90;46.30;;;;;;5089814;28;20225;-43
2022/10/22 00:50:28;;;;;;;6.45;2.58;;;18.90;46.40;;;;;;5090189;28;20691;-39
2022/10/22 00:53:02;;;;;;;5.85;2.25;;;18.90;46.40;;;;;;5090371;28;20201;-42
2022/10/22 00:55:34;;;;;;;5.75;2.22;;;18.90;46.40;;;;;;5090041;28;20216;-46
2022/10/22 00:58:05;;;;;;;6.45;2.47;;;19.00;46.40;;;;;;5089640;28;20202;-39
2022/10/22 01:00:36;;;;;;;5.07;2.28;;;19.00;46.30;;;;;;5089474;28;20201;-41
2022/10/22 01:03:07;;;;;;;6.60;2.42;;;19.00;46.20;;;;;;5090040;28;20738;-42
2022/10/22 01:05:44;;;;;;;5.75;2.70;;;19.00;46.20;;;;;;5089664;28;20654;-37
2022/10/22 01:08:26;;;;;;;4.97;2.20;;;19.10;46.10;;;;;;5089822;28;20201;-40
2022/10/22 01:11:07;;;;;;;6.53;2.38;;;19.10;46.00;;;;;;5090042;28;20699;-43
2022/10/22 01:13:50;;;;;;;5.47;2.58;;;19.10;46.00;;;;;;5089591;28;20201;-39
2022/10/22 01:16:28;;;;;;;6.43;2.72;;;19.10;46.10;;;;;;5088423;28;20217;-38
2022/10/22 01:19:12;;;;;;;5.45;1.98;;;19.10;46.00;;;;;;5080356;28;20209;-38
2022/10/22 01:21:46;;;;;;;4.38;1.95;;;19.10;46.00;;;;;;5089826;28;20194;-37
2022/10/22 01:24:44;;;;;;;4.60;2.55;;;19.20;46.10;;;;;;5089495;28;20209;-38
2022/10/22 01:27:54;;;;;;;5.82;2.42;;;19.20;46.10;;;;;;5089703;28;20218;-35
2022/10/22 01:30:28;;;;;;;5.55;2.45;;;19.20;46.10;;;;;;5061892;28;20237;-37
2022/10/22 01:33:02;;;;;;;6.32;2.30;;;19.20;46.10;;;;;;5069191;28;20187;-38
2022/10/22 01:35:37;;;;;;;5.82;2.22;;;19.30;46.10;;;;;;5069693;28;20193;-44
2022/10/22 01:38:11;;;;;;;6.25;2.63;;;19.30;46.00;;;;;;5069441;28;20190;-41
2022/10/22 01:40:43;;;;;;;4.55;2.20;;;19.30;45.90;;;;;;5069494;28;20205;-43
2022/10/22 01:43:14;;;;;;;5.53;2.35;;;19.30;45.80;;;;;;5074610;28;20218;-35
2022/10/22 01:45:49;;;;;;;5.85;2.10;;;19.30;45.70;;;;;;5088987;28;20232;-37
2022/10/22 01:48:34;;;;;;;5.38;2.35;;;19.30;45.70;;;;;;5088785;28;20201;-38
2022/10/22 01:51:28;;;;;;;6.85;2.45;;;19.30;45.70;;;;;;5090754;28;20194;-37
2022/10/22 01:54:10;;;;;;;4.65;1.95;;;19.40;45.80;;;;;;5092527;28;20265;-36
2022/10/22 01:56:56;;;;;;;4.00;2.15;;;19.40;45.90;;;;;;5093122;28;20218;-36
2022/10/22 01:59:34;;;;;;;6.20;2.20;;;19.40;45.90;;;;;;5092933;28;20194;-38
2022/10/22 02:02:18;;;;;;;4.22;2.05;;;19.50;46.00;;;;;;5093333;28;20255;-36
2022/10/22 02:04:53;;;;;;;7.07;2.35;;;19.50;46.00;;;;;;5093755;28;20194;-42
2022/10/22 02:07:28;;;;;;;3.90;2.05;;;19.50;45.80;;;;;;5092873;28;20218;-41
2022/10/22 02:10:01;;;;;;;4.18;2.05;;;19.50;45.70;;;;;;5093206;28;20225;-36
2022/10/22 02:12:33;;;;;;;6.57;2.33;;;19.50;45.70;;;;;;5093046;28;20202;-38
2022/10/22 02:15:06;;;;;;;6.30;2.30;;;19.60;45.60;;;;;;5092110;28;20194;-42
2022/10/22 02:17:41;;;;;;;6.15;2.28;;;19.60;45.60;;;;;;5092870;28;20756;-35
2022/10/22 02:20:16;;;;;;;4.82;2.03;;;19.60;45.50;;;;;;5092538;28;20672;-38
2022/10/22 02:22:48;;;;;;;6.45;1.92;;;19.70;45.50;;;;;;5092203;28;20580;-39
2022/10/22 02:25:19;;;;;;;6.28;2.20;;;19.70;45.60;;;;;;5092374;28;20194;-35
2022/10/22 02:27:56;;;;;;;4.90;1.98;;;19.70;45.50;;;;;;5092435;28;20589;-35
2022/10/22 02:30:26;;;;;;;6.07;2.45;;;19.70;45.60;;;;;;5091760;28;20209;-36
2022/10/22 02:33:04;;;;;;;4.57;1.90;;;19.70;45.70;;;;;;5092061;28;20697;-38
2022/10/22 02:35:35;;;;;;;4.57;2.00;;;19.70;45.60;;;;;;5092219;28;20193;-35
2022/10/22 02:38:06;;;;;;;6.13;2.25;;;19.80;45.60;;;;;;5092495;28;20217;-38
2022/10/22 02:40:38;;;;;;;5.03;2.03;;;19.80;45.60;;;;;;5092111;28;20221;-35
2022/10/22 02:43:09;;;;;;;5.97;2.38;;;19.80;45.50;;;;;;5092126;28;20245;-38
2022/10/22 02:45:40;;;;;;;3.85;2.08;;;19.80;45.40;;;;;;5091816;28;20642;-35
2022/10/22 02:48:12;;;;;;;4.85;1.98;;;19.90;45.40;;;;;;5092564;28;20221;-35
2022/10/22 02:50:43;;;;;;;6.28;2.33;;;19.90;45.40;;;;;;5092376;28;20194;-39
2022/10/22 02:53:14;;;;;;;6.00;1.98;;;19.90;45.40;;;;;;5092116;28;20194;-41
2022/10/22 02:55:45;;;;;;;4.25;2.05;;;20.00;45.30;;;;;;5091829;28;20198;-37
2022/10/22 02:58:15;;;;;;;4.65;2.10;;;20.00;45.30;;;;;;5092038;28;20672;-35
2022/10/22 03:00:46;;;;;;;4.22;2.10;;;20.00;45.30;;;;;;5091212;28;20194;-41
2022/10/22 03:03:21;;;;;;;5.10;2.25;;;20.00;45.30;;;;;;5092001;28;20224;-35
2022/10/22 03:05:53;;;;;;;6.75;2.10;;;20.10;45.30;;;;;;5092179;28;20690;-38
2022/10/22 03:08:24;;;;;;;6.35;2.47;;;20.10;45.30;;;;;;5091969;28;20194;-36
2022/10/22 03:10:55;;;;;;;6.72;2.30;;;20.10;45.20;;;;;;5091701;28;20205;-35
2022/10/22 03:13:25;;;;;;;4.97;1.83;;;20.10;45.10;;;;;;5091852;28;20197;-35
2022/10/22 03:15:56;;;;;;;3.60;2.00;;;20.20;45.10;;;;;;5091583;28;20225;-38
2022/10/22 03:18:29;;;;;;;6.18;2.40;;;20.20;45.10;;;;;;5091930;28;20251;-42
2022/10/22 03:21:12;;;;;;;6.32;2.80;;;20.20;45.10;;;;;;5091752;28;20198;-36
2022/10/22 03:23:44;;;;;;;6.22;2.22;;;20.20;45.00;;;;;;5091360;28;20237;-37
2022/10/22 03:26:16;;;;;;;6.13;2.53;;;20.30;45.00;;;;;;5091462;28;20241;-39
2022/10/22 03:28:47;;;;;;;5.32;2.42;;;20.30;45.10;;;;;;5091125;28;20194;-35
2022/10/22 03:31:18;;;;;;;4.63;2.10;;;20.30;45.00;;;;;;5091540;28;20646;-37
2022/10/22 03:33:51;;;;;;;6.32;2.25;;;20.30;45.10;;;;;;5091084;28;20205;-35
2022/10/22 03:36:21;;;;;;;5.88;2.25;;;20.40;45.20;;;;;;5091446;28;20218;-39
2022/10/22 03:38:52;;;;;;;6.15;2.83;;;20.40;45.20;;;;;;5091207;28;20191;-42
2022/10/22 03:41:23;;;;;;;4.97;2.30;;;20.40;45.10;;;;;;5091201;28;20676;-35
2022/10/22 03:43:56;;;;;;;5.32;2.60;;;20.50;45.20;;;;;;5089765;28;20224;-37
2022/10/22 03:46:26;;;;;;;5.70;2.55;;;20.50;45.10;;;;;;5090717;28;20708;-35
2022/10/22 03:48:59;;;;;;;5.55;2.03;;;20.50;45.00;;;;;;5090526;28;20191;-36
2022/10/22 03:51:30;;;;;;;5.75;2.50;;;20.60;45.00;;;;;;5091175;28;20205;-35
2022/10/22 03:54:01;;;;;;;5.40;2.60;;;20.60;44.80;;;;;;5090791;28;20225;-37
2022/10/22 03:56:32;;;;;;;6.38;2.90;;;20.60;44.80;;;;;;5090986;28;20214;-42
2022/10/22 03:59:03;;;;;;;6.25;3.00;;;20.60;44.70;;;;;;5090131;28;20236;-36
2022/10/22 04:01:34;;;;;;;8.10;3.00;;;20.70;44.80;;;;;;5090478;28;20204;-38
2022/10/22 04:04:07;;;;;;;6.90;2.95;;;20.70;44.90;;;;;;5091118;28;20233;-38
2022/10/22 04:06:37;;;;;;;5.15;2.90;;;20.70;44.90;;;;;;5090788;28;20677;-37
2022/10/22 04:09:08;;;;;;;4.82;2.47;;;20.70;44.80;;;;;;5090465;28;20195;-39
2022/10/22 04:11:39;;;;;;;7.45;2.90;;;20.70;44.80;;;;;;5090480;28;20194;-35
2022/10/22 04:14:10;;;;;;;6.43;3.17;;;20.80;44.80;;;;;;5089189;28;20205;-36
2022/10/22 04:16:43;;;;;;;7.60;3.50;;;20.80;44.90;;;;;;5089941;28;20214;-35
2022/10/22 04:19:17;;;;;;;8.40;3.70;;;20.80;44.80;;;;;;5090117;28;20201;-37
2022/10/22 04:21:47;;;;;;;8.05;3.90;;;20.80;44.90;;;;;;5090362;28;20206;-35
2022/10/22 04:24:18;;;;;;;7.63;4.15;;;20.90;45.00;;;;;;5090111;28;20233;-40
2022/10/22 04:26:49;;;;;;;8.70;4.50;;;20.90;45.00;;;;;;5089709;28;20214;-38
2022/10/22 04:29:20;;;;;;;9.27;5.03;;;21.00;45.10;;;;;;5090220;28;20195;-39
2022/10/22 04:31:51;;;;;;;9.80;4.20;;;21.00;45.10;;;;;;5090478;28;20197;-37
2022/10/22 04:34:23;;;;;;;8.63;4.97;;;21.00;45.20;;;;;;5090458;28;20202;-39
2022/10/22 04:36:54;;;;;;;10.52;5.20;;;21.10;45.20;;;;;;5090336;28;20231;-39
2022/10/22 04:39:25;;;;;;;7.68;4.22;;;21.10;45.20;;;;;;5089942;28;20205;-41
2022/10/22 04:41:55;;;;;;;8.98;4.82;;;21.20;45.30;;;;;;5090272;28;20560;-35
2022/10/22 04:44:26;;;;;;;9.25;4.30;;;21.20;45.20;;;;;;5089984;28;20240;-35
2022/10/22 04:46:57;;;;;;;7.88;4.00;;;21.20;45.30;;;;;;5090246;28;20221;-38
2022/10/22 04:49:29;;;;;;;11.27;5.05;;;21.30;45.20;;;;;;5090388;28;20186;-35
2022/10/22 04:52:00;;;;;;;8.18;4.22;;;21.30;45.10;;;;;;5089414;28;20205;-36
2022/10/22 04:54:31;;;;;;;6.75;3.95;;;21.30;45.20;;;;;;5089159;28;20209;-37
2022/10/22 04:57:02;;;;;;;11.52;4.20;;;21.30;45.20;;;;;;5089875;28;20228;-38
2022/10/22 04:59:32;;;;;;;8.73;4.35;;;21.30;45.20;;;;;;5089750;28;20201;-36
2022/10/22 05:02:03;;;;;;;11.43;4.32;;;21.30;45.30;;;;;;5089906;28;20220;-37
2022/10/22 05:04:36;;;;;;;12.65;4.50;;;21.40;45.50;;;;;;5090504;28;20324;-37
2022/10/22 05:07:06;;;;;;;9.70;4.20;;;21.40;45.60;;;;;;5089530;28;20214;-35
2022/10/22 05:09:37;;;;;;;11.27;4.35;;;21.40;45.70;;;;;;5089194;28;20194;-35
2022/10/22 05:12:08;;;;;;;7.13;3.83;;;21.40;45.60;;;;;;5089390;28;20190;-39
2022/10/22 05:14:39;;;;;;;15.82;4.93;;;21.40;45.60;;;;;;5084182;28;20199;-36
2022/10/22 05:17:10;;;;;;;14.25;4.50;;;21.40;45.70;;;;;;5089829;28;20559;-38
2022/10/22 05:19:42;;;;;;;8.85;3.88;;;21.40;45.70;;;;;;5090147;28;20668;-35
2022/10/22 05:22:13;;;;;;;10.95;4.13;;;21.40;45.80;;;;;;5089630;28;20208;-35
2022/10/22 05:24:44;;;;;;;8.52;3.88;;;21.40;45.80;;;;;;5090597;28;20225;-35
2022/10/22 05:27:14;;;;;;;12.57;4.55;;;21.40;45.80;;;;;;5093747;28;20692;-35
2022/10/22 05:29:45;;;;;;;9.23;4.28;;;21.40;45.80;;;;;;5093479;28;20201;-35
2022/10/22 05:32:16;;;;;;;10.65;4.35;;;21.40;45.90;;;;;;5093698;28;20564;-35
2022/10/22 05:34:48;;;;;;;10.05;4.10;;;21.40;46.00;;;;;;5093648;28;20205;-35
2022/10/22 05:37:19;;;;;;;8.38;4.57;;;21.40;46.00;;;;;;5093054;28;20209;-35
2022/10/22 05:39:50;;;;;;;9.18;4.47;;;21.40;46.00;;;;;;5093526;28;20198;-37
2022/10/22 05:42:20;;;;;;;12.77;4.50;;;21.40;46.00;;;;;;5093635;28;20197;-38
2022/10/22 05:44:51;;;;;;;9.70;4.43;;;21.40;46.00;;;;;;5092860;28;20579;-36
2022/10/22 05:47:22;;;;;;;9.70;4.82;;;21.40;46.00;;;;;;5093360;28;20221;-36
2022/10/22 05:49:56;;;;;;;9.88;3.72;;;21.40;46.00;;;;;;5093388;28;20281;-35
2022/10/22 05:52:26;;;;;;;7.78;4.55;;;21.40;46.00;;;;;;5092933;28;20198;-37
2022/10/22 05:54:57;;;;;;;6.65;4.28;;;21.40;45.90;;;;;;5093314;28;20494;-36
2022/10/22 05:57:28;;;;;;;8.73;4.63;;;21.40;45.90;;;;;;5093081;28;20230;-36
2022/10/22 05:59:59;;;;;;;7.88;4.13;;;21.50;46.00;;;;;;5092852;28;20201;-35
2022/10/22 06:02:29;;;;;;;9.57;4.97;;;21.50;46.10;;;;;;5093084;28;20194;-35
2022/10/22 06:05:02;;;;;;;11.55;4.53;;;21.50;46.20;;;;;;5092797;28;20229;-35
2022/10/22 06:07:33;;;;;;;10.18;4.30;;;21.50;46.30;;;;;;5093172;28;20225;-35
2022/10/22 06:10:04;;;;;;;7.50;4.20;;;21.50;46.20;;;;;;5089102;28;20199;-35
2022/10/22 06:12:34;;;;;;;8.63;4.35;;;21.50;46.20;;;;;;5077758;28;20560;-38
2022/10/22 06:15:05;;;;;;;11.90;4.65;;;21.50;46.20;;;;;;5086685;28;20199;-38
2022/10/22 06:17:36;;;;;;;9.20;4.75;;;21.40;46.20;;;;;;5092968;28;20210;-39
2022/10/22 06:20:09;;;;;;;7.57;3.80;;;21.40;46.30;;;;;;5091369;28;20645;-39
2022/10/22 06:22:40;;;;;;;5.93;3.55;;;21.40;46.40;;;;;;5092942;28;20400;-36
2022/10/22 06:25:13;;;;;;;7.72;4.30;;;21.40;46.40;;;;;;5092490;28;20222;-39
2022/10/22 06:27:43;;;;;;;8.60;4.03;;;21.40;46.40;;;;;;5092617;28;20222;-35
2022/10/22 06:30:14;;;;;;;8.63;4.05;;;21.40;46.40;;;;;;5091516;28;20190;-39
2022/10/22 06:32:45;;;;;;;6.72;3.63;;;21.40;46.40;;;;;;5092613;28;20653;-35
2022/10/22 06:35:18;;;;;;;8.23;4.55;;;21.40;46.40;;;;;;5092301;28;20206;-35
2022/10/22 06:37:49;;;;;;;10.40;3.85;;;21.30;46.30;;;;;;5091695;28;20218;-36
2022/10/22 06:40:19;;;;;;;8.20;4.25;;;21.40;46.40;;;;;;5092604;28;20198;-36
2022/10/22 06:42:50;;;;;;;7.72;3.70;;;21.40;46.40;;;;;;5092510;28;20200;-36
2022/10/22 06:45:21;;;;;;;8.00;3.90;;;21.30;47.00;;;;;;5091915;28;20222;-38
2022/10/22 06:47:52;;;;;;;8.75;3.53;;;21.30;46.40;;;;;;5092760;28;20225;-35
2022/10/22 06:50:25;;;;;;;6.72;3.90;;;21.30;46.40;;;;;;5092704;28;20230;-35
2022/10/22 06:52:55;;;;;;;7.63;4.00;;;21.30;46.50;;;;;;5092466;28;20194;-35
2022/10/22 06:55:26;;;;;;;7.25;4.15;;;21.30;46.60;;;;;;5092293;28;20212;-35
2022/10/22 06:57:57;;;;;;;8.20;4.00;;;21.30;46.70;;;;;;5092207;28;20225;-35
2022/10/22 07:00:28;;;;;;;7.80;3.85;;;21.30;46.70;;;;;;5091966;28;20199;-35
2022/10/22 07:02:59;;;;;;;7.30;3.95;;;21.20;46.70;;;;;;5092102;28;20193;-39
2022/10/22 07:05:31;;;;;;;8.77;4.30;;;21.20;46.70;;;;;;5091829;28;20587;-35
2022/10/22 07:08:02;;;;;;;7.65;4.10;;;21.20;46.80;;;;;;5091682;28;20201;-37
2022/10/22 07:10:33;;;;;;;7.93;3.97;;;21.20;46.80;;;;;;5091984;28;20195;-35
2022/10/22 07:13:04;;;;;;;6.93;4.00;;;21.20;46.80;;;;;;5091815;28;20206;-35
2022/10/22 07:15:34;;;;;;;7.38;3.90;;;21.10;46.80;;;;;;5090997;28;20207;-36
2022/10/22 07:18:05;;;;;;;6.32;3.60;;;21.20;46.80;;;;;;5091777;28;20194;-38
2022/10/22 07:20:38;;;;;;;6.75;4.20;;;21.10;46.70;;;;;;5091970;28;20249;-35
2022/10/22 07:23:08;;;;;;;5.97;3.92;;;21.10;46.70;;;;;;5091766;28;20198;-35
2022/10/22 07:25:39;;;;;;;6.32;3.42;;;21.00;46.80;;;;;;5091385;28;20594;-35
2022/10/22 07:28:10;;;;;;;7.13;3.63;;;21.00;46.80;;;;;;5091707;28;20198;-35
2022/10/22 07:30:42;;;;;;;6.63;3.00;;;21.00;46.90;;;;;;5089699;28;20943;-41
2022/10/22 07:33:12;;;;;;;7.15;3.50;;;21.00;46.90;;;;;;5091149;28;20194;-35
2022/10/22 07:35:45;;;;;;;7.00;3.85;;;20.90;46.90;;;;;;5091006;28;20202;-38
2022/10/22 07:38:18;;;;;;;7.45;3.63;;;20.90;46.90;;;;;;5091236;28;20191;-39
2022/10/22 07:40:48;;;;;;;6.18;3.25;;;20.90;46.90;;;;;;5091504;28;20660;-35
2022/10/22 07:43:19;;;;;;;6.07;3.38;;;20.90;46.90;;;;;;5091630;28;20190;-38
2022/10/22 07:45:50;;;;;;;6.28;3.30;;;20.90;47.00;;;;;;5090246;28;20221;-35
2022/10/22 07:48:21;;;;;;;4.82;3.53;;;20.90;47.00;;;;;;5090866;28;20194;-38
2022/10/22 07:50:54;;;;;;;6.65;3.75;;;20.80;46.90;;;;;;5090905;28;20198;-41
2022/10/22 07:53:25;;;;;;;5.78;3.55;;;20.80;46.90;;;;;;5082905;28;20186;-41
2022/10/22 07:55:56;;;;;;;6.10;3.20;;;20.80;46.90;;;;;;5091697;28;20218;-35
2022/10/22 07:58:27;;;;;;;10.27;3.78;;;20.70;46.90;;;;;;5090736;28;20296;-46
2022/10/22 08:00:59;;;;;;;6.53;3.58;;;20.70;47.00;;;;;;5091946;28;20244;-36
2022/10/22 08:03:30;;;;;;;5.75;3.53;;;20.70;47.10;;;;;;5091561;28;20194;-36
2022/10/22 08:06:03;;;;;;;7.90;3.88;;;20.60;47.00;;;;;;5091020;28;20622;-36
2022/10/22 08:08:34;;;;;;;7.72;3.65;;;20.60;47.00;;;;;;5091494;28;20191;-36
2022/10/22 08:11:05;;;;;;;6.43;3.33;;;20.60;47.00;;;;;;5090040;28;20762;-35
2022/10/22 08:13:36;;;;;;;6.57;3.63;;;20.60;47.00;;;;;;5091681;28;20201;-36
2022/10/22 08:16:07;;;;;;;5.20;3.38;;;20.50;47.10;;;;;;5091585;28;20224;-36
2022/10/22 08:18:38;;;;;;;4.72;3.13;;;20.50;47.10;;;;;;5091522;28;20567;-35
2022/10/22 08:21:11;;;;;;;6.18;3.08;;;20.50;47.10;;;;;;5091131;28;20578;-38
2022/10/22 08:23:41;;;;;;;4.85;3.25;;;20.50;47.10;;;;;;5091049;28;20193;-35
2022/10/22 08:26:13;;;;;;;5.35;3.05;;;20.40;47.10;;;;;;5090841;28;20222;-35
2022/10/22 08:28:44;;;;;;;6.93;3.75;;;20.40;47.10;;;;;;5091025;28;20273;-37
2022/10/22 08:31:14;;;;;;;4.97;3.08;;;20.30;47.10;;;;;;5091162;28;20566;-44
2022/10/22 08:33:45;;;;;;;5.68;3.08;;;20.30;47.10;;;;;;5091402;28;20205;-39
2022/10/22 08:36:18;;;;;;;5.25;3.30;;;20.30;47.20;;;;;;5090859;28;20225;-37
2022/10/22 08:38:48;;;;;;;5.72;3.33;;;20.30;47.20;;;;;;5090847;28;20190;-38
2022/10/22 08:41:22;;;;;;;4.88;3.20;;;20.30;47.10;;;;;;5090872;28;20197;-44
2022/10/22 08:44:23;;;;;;;5.03;3.25;;;20.20;47.10;;;;;;5090646;28;20550;-36
2022/10/22 08:47:25;;;;;;;7.00;3.78;;;20.20;47.10;;;;;;5090966;28;20225;-39
2022/10/22 08:49:56;;;;;;;5.22;3.20;;;20.20;47.10;;;;;;5068970;28;20205;-37
2022/10/22 08:52:29;;;;;;;5.63;3.05;;;20.20;47.00;;;;;;5071091;28;20298;-40
2022/10/22 08:55:00;;;;;;;5.95;3.20;;;20.10;47.10;;;;;;5090077;28;20212;-36
2022/10/22 08:57:46;;;;;;;5.95;3.30;;;20.10;47.20;;;;;;5091036;28;20226;-46
2022/10/22 09:00:21;;;;;;;5.07;2.88;;;20.00;47.20;;;;;;5090011;28;20213;-36
2022/10/22 09:03:11;;;;;;;6.25;3.10;;;20.10;47.20;;;;;;5089848;28;20204;-35
2022/10/22 09:05:49;;;;;;;5.45;2.80;;;20.00;47.20;;;;;;5090878;28;20233;-44
2022/10/22 09:08:22;;;;;;;4.75;2.95;;;20.00;47.30;;;;;;5090948;28;20193;-43
2022/10/22 09:10:57;;;;;;;6.28;2.88;;;19.90;47.30;;;;;;5091084;28;20198;-41
2022/10/22 09:13:28;;;;;;;5.57;3.10;;;19.90;47.20;;;;;;5090389;28;20189;-41
2022/10/22 09:16:02;;;;;;;4.95;2.83;;;19.90;47.20;;;;;;5090843;28;20218;-37
2022/10/22 09:18:43;;;;;;;4.10;3.03;;;19.80;47.20;;;;;;5090853;28;20196;-41
2022/10/22 09:21:22;;;;;;;4.00;2.70;;;19.80;47.20;;;;;;5090331;28;20217;-35
2022/10/22 09:24:03;;;;;;;4.03;2.63;;;19.80;47.20;;;;;;5090435;28;20193;-42
2022/10/22 09:26:37;;;;;;;5.50;2.58;;;19.80;47.30;;;;;;5090303;28;20241;-38
2022/10/22 09:29:09;;;;;;;3.72;2.50;;;19.80;47.30;;;;;;5090152;28;20192;-53
2022/10/22 09:31:39;;;;;;;5.95;2.72;;;19.80;47.30;;;;;;5090722;28;20198;-41
2022/10/22 09:34:10;;;;;;;5.10;3.13;;;19.70;47.40;;;;;;5090500;28;20233;-43
2022/10/22 09:36:41;;;;;;;4.75;2.75;;;19.70;47.40;;;;;;5089706;28;20214;-40
2022/10/22 09:39:28;;;;;;;5.55;2.75;;;19.70;47.40;;;;;;5089923;28;20209;-40
2022/10/22 09:41:59;;;;;;;5.95;3.08;;;19.60;47.40;;;;;;5090707;28;20198;-41
2022/10/22 09:44:34;;;;;;;5.50;2.67;;;19.60;47.40;;;;;;5090066;28;20194;-35
2022/10/22 09:47:07;;;;;;;3.92;2.95;;;19.50;47.30;;;;;;5090776;28;20224;-36
2022/10/22 09:49:39;;;;;;;3.42;2.35;;;19.60;47.40;;;;;;5090165;28;20279;-36
2022/10/22 09:52:27;;;;;;;4.18;2.60;;;19.50;47.40;;;;;;5090961;28;20190;-40
2022/10/22 09:55:03;;;;;;;6.90;3.53;;;19.50;47.40;;;;;;5090588;28;20190;-39
2022/10/22 09:57:35;;;;;;;5.53;2.90;;;19.50;47.40;;;;;;5090641;28;20229;-37
2022/10/22 10:00:10;;;;;;;4.63;2.80;;;19.50;47.50;;;;;;5090919;28;20217;-38
2022/10/22 10:02:44;;;;;;;5.88;3.00;;;19.40;47.50;;;;;;5090470;28;20314;-35
2022/10/22 10:05:22;;;;;;;7.53;2.80;;;19.40;47.50;;;;;;5089906;28;20222;-36
2022/10/22 10:07:53;;;;;;;5.05;2.72;;;19.30;47.60;;;;;;5089560;28;20218;-41
2022/10/22 10:10:35;;;;;;;4.15;2.60;;;19.30;47.60;;;;;;5089637;28;20205;-42
2022/10/22 10:13:19;;;;;;;5.18;2.78;;;19.30;47.60;;;;;;5093004;28;20198;-44
2022/10/22 10:15:55;;;;;;;3.83;2.47;;;19.30;47.70;;;;;;5094294;28;20198;-41
2022/10/22 10:18:34;;;;;;;5.65;2.83;;;19.30;47.70;;;;;;5093420;28;20201;-49
2022/10/22 10:21:12;;;;;;;5.20;2.92;;;19.20;47.70;;;;;;5093647;28;20664;-43
2022/10/22 10:23:50;;;;;;;3.97;2.38;;;19.20;47.70;;;;;;5094079;28;20194;-47
2022/10/22 10:26:26;;;;;;;3.65;2.50;;;19.20;48.30;;;;;;5093877;28;20237;-39
2022/10/22 10:29:13;;;;;;;5.75;2.78;;;19.20;47.80;;;;;;5092564;28;20197;-38
2022/10/22 10:31:57;;;;;;;7.25;3.10;;;19.10;47.70;;;;;;5092621;28;20201;-38
2022/10/22 10:34:38;;;;;;;4.22;2.72;;;19.10;47.80;;;;;;5092451;28;20190;-43
2022/10/22 10:37:20;;;;;;;5.70;2.70;;;19.10;47.90;;;;;;5092511;28;20297;-40
2022/10/22 10:40:16;;;;;;;5.68;2.83;;;19.00;47.80;;;;;;5092729;28;20194;-40
2022/10/22 10:42:54;;;;;;;4.97;3.03;;;19.00;47.90;;;;;;5092676;28;20194;-42
2022/10/22 10:45:32;;;;;;;5.32;2.67;;;19.00;47.90;;;;;;5092309;28;20244;-39
2022/10/22 10:48:25;;;;;;;5.43;2.85;;;19.00;47.90;;;;;;5092573;28;20205;-43
2022/10/22 10:51:04;;;;;;;3.83;2.33;;;18.90;47.90;;;;;;5092767;28;20194;-40
2022/10/22 10:53:51;;;;;;;5.22;2.58;;;18.90;48.00;;;;;;5092072;28;20555;-45
2022/10/22 10:56:34;;;;;;;4.78;2.60;;;18.90;48.00;;;;;;5092055;28;20229;-36
2022/10/22 10:59:16;;;;;;;4.10;2.50;;;18.90;48.00;;;;;;5092122;28;20217;-44
2022/10/22 11:02:02;;;;;;;5.90;2.67;;;18.90;48.00;;;;;;5092270;28;20205;-45
2022/10/22 11:05:04;;;;;;;4.05;2.58;;;18.90;48.10;;;;;;5092020;28;20204;-39
2022/10/22 11:07:40;;;;;;;4.10;2.47;;;18.80;48.10;;;;;;5091400;28;20245;-41
2022/10/22 11:10:25;;;;;;;6.15;3.03;;;18.80;48.20;;;;;;5092237;28;20198;-39
2022/10/22 11:13:00;;;;;;;6.22;2.85;;;18.80;48.20;;;;;;5092042;28;20669;-40
2022/10/22 11:15:34;;;;;;;4.38;2.53;;;18.80;48.20;;;;;;5092077;28;20204;-38
2022/10/22 11:18:16;;;;;;;4.82;2.42;;;18.70;48.20;;;;;;5092136;28;20189;-48
2022/10/22 11:21:01;;;;;;;4.55;2.92;;;18.70;48.20;;;;;;5091947;28;20198;-45
2022/10/22 11:23:38;;;;;;;5.22;2.67;;;18.70;48.20;;;;;;5090882;28;20200;-44
2022/10/22 11:26:14;;;;;;;4.32;2.60;;;18.70;48.20;;;;;;5091352;28;20230;-38
2022/10/22 11:28:49;;;;;;;5.05;2.60;;;18.70;48.30;;;;;;5091739;28;20200;-47
2022/10/22 11:31:24;;;;;;;4.05;2.17;;;18.60;48.20;;;;;;5091707;28;20561;-40
2022/10/22 11:34:01;;;;;;;4.65;2.53;;;18.60;48.20;;;;;;5091640;28;20197;-45
2022/10/22 11:36:33;;;;;;;4.63;2.40;;;18.60;48.20;;;;;;5091613;28;20891;-41
2022/10/22 11:39:06;;;;;;;4.10;2.50;;;18.60;48.30;;;;;;5071318;28;20201;-45
2022/10/22 11:41:37;;;;;;;3.95;2.40;;;18.60;49.00;;;;;;5070807;28;20202;-40
2022/10/22 11:44:22;;;;;;;4.43;2.38;;;18.60;48.40;;;;;;5071277;28;20194;-40
2022/10/22 11:47:16;;;;;;;5.18;2.60;;;18.50;48.30;;;;;;5070520;28;20226;-42
2022/10/22 11:49:57;;;;;;;4.28;2.38;;;18.50;48.40;;;;;;5070797;28;20579;-42
2022/10/22 11:52:40;;;;;;;4.22;2.47;;;18.50;48.40;;;;;;5077495;28;20194;-41
2022/10/22 11:55:45;;;;;;;3.55;2.00;;;18.50;48.40;;;;;;5091340;28;20653;-44
2022/10/22 11:58:34;;;;;;;3.10;2.10;;;18.40;48.40;;;;;;5088065;28;20257;-37
2022/10/22 12:01:31;;;;;;;3.72;2.10;;;18.40;48.40;;;;;;5090935;28;20559;-41
2022/10/22 12:04:23;;;;;;;5.57;2.25;;;18.40;48.40;;;;;;5067193;28;20634;-51
2022/10/22 12:07:03;;;;;;;4.75;2.40;;;18.40;48.40;;;;;;5089870;28;20236;-38
2022/10/22 12:09:42;;;;;;;3.13;2.00;;;18.30;48.40;;;;;;5090635;28;20201;-40
2022/10/22 12:12:17;;;;;;;5.10;2.60;;;18.30;48.40;;;;;;5091051;28;20568;-47
2022/10/22 12:14:59;;;;;;;4.50;2.50;;;18.30;48.50;;;;;;5090954;28;20193;-45
2022/10/22 12:17:32;;;;;;;2.80;2.00;;;18.30;48.60;;;;;;5090844;28;20737;-40
2022/10/22 12:20:12;;;;;;;4.18;2.30;;;18.20;48.50;;;;;;5091535;28;20229;-43
2022/10/22 12:22:43;;;;;;;3.97;2.20;;;18.20;48.50;;;;;;5090345;28;20859;-54
2022/10/22 12:25:21;;;;;;;4.97;2.50;;;18.20;48.50;;;;;;5090288;28;20205;-39
2022/10/22 12:27:56;;;;;;;4.60;2.33;;;18.20;48.60;;;;;;5070103;28;20255;-45
2022/10/22 12:30:29;;;;;;;3.58;2.20;;;18.10;49.10;;;;;;5084169;28;20189;-37
2022/10/22 12:33:01;;;;;;;4.28;2.28;;;18.10;48.50;;;;;;5090606;28;20198;-43
2022/10/22 12:35:36;;;;;;;4.22;2.30;;;18.10;48.50;;;;;;5089582;28;20668;-37
2022/10/22 12:38:15;;;;;;;3.67;2.08;;;18.10;48.50;;;;;;5087815;28;20190;-46
2022/10/22 12:40:46;;;;;;;3.47;2.03;;;18.10;48.50;;;;;;5090009;28;20205;-36
2022/10/22 12:43:18;;;;;;;3.20;1.88;;;18.10;48.60;;;;;;5090110;28;20194;-42
2022/10/22 12:45:51;;;;;;;4.10;1.92;;;18.10;49.20;;;;;;5089977;28;20576;-38
2022/10/22 12:48:25;;;;;;;4.00;2.20;;;18.00;48.50;;;;;;5090097;28;20229;-38
2022/10/22 12:51:00;;;;;;;2.75;1.73;;;18.00;48.60;;;;;;5090204;28;20194;-38
2022/10/22 12:53:34;;;;;;;3.72;2.10;;;18.00;48.60;;;;;;5089445;28;20190;-40
2022/10/22 12:56:08;;;;;;;3.47;2.10;;;18.00;48.60;;;;;;5088630;28;20222;-36
2022/10/22 12:58:42;;;;;;;5.18;2.22;;;17.90;48.60;;;;;;5090075;28;20245;-35
2022/10/22 13:01:14;;;;;;;3.53;2.10;;;17.90;48.60;;;;;;5090382;28;20198;-37
2022/10/22 13:03:48;;;;;;;3.78;1.90;;;17.90;48.50;;;;;;5090126;28;20206;-40
2022/10/22 13:06:29;;;;;;;3.75;2.40;;;17.90;48.60;;;;;;5090059;28;20302;-35
2022/10/22 13:09:14;;;;;;;3.10;1.80;;;17.90;48.60;;;;;;5089445;28;20661;-37
2022/10/22 13:11:52;;;;;;;2.90;2.05;;;17.90;48.60;;;;;;5089701;28;20194;-40
2022/10/22 13:14:29;;;;;;;2.95;1.90;;;17.80;48.60;;;;;;5089611;28;20194;-39
2022/10/22 13:17:12;;;;;;;2.90;1.70;;;17.80;48.60;;;;;;5089412;28;20723;-44
2022/10/22 13:19:45;;;;;;;3.67;1.90;;;17.80;48.60;;;;;;5089758;28;20653;-39
2022/10/22 13:22:35;;;;;;;3.97;1.90;;;17.80;48.60;;;;;;5089049;28;20201;-37
2022/10/22 13:25:22;;;;;;;3.35;1.92;;;17.70;48.60;;;;;;5089776;28;20206;-37